EHAM

Amsterdam Schiphol Airport

Amsterdam, The Netherlands
METAR EHAM 210425Z 31008KT 9999 FEW025 02/M00 Q1010 NOSIG
Observed Flight Rules
Jan-21 @ 04:25 UTC (22 minutes ago) Visual Flight Rules
Wind Visibility Clouds
310° at 8 knots 10,000+ meters
  • Few at 2,500' AGL
Temperatures Readings
Current 2°C / 36°F
Dewpoint 0°C / 32°F
Humidity 87%
Altimeter 29.82" Hg
Pressure 1010 hPa
Elevation 9
METAR EHAM 210425Z 31008KT 9999 FEW025 02/M00 Q1010 NOSIG
Observed Flight Rules
Jan-21 @ 04:25 UTC
(22 minutes ago)
VFR
Wind Visibility
310° at 8 knots 10,000+ meters
Clouds
  • Few at 2,500' AGL
Temperature Dewpoint
2°C / 36°F 0°C / 32°F
Humidity Altimeter Pressure
87% 29.82" Hg 1010 hPa